sensor_id;sensor_type;location;lat;lon;timestamp;pressure;altitude;pressure_sealevel;temperature;humidity
50696;BME280;36665;51.786;21.594;2023-07-28T00:07:43;93382.17;;;12.22;63.62
50696;BME280;36665;51.786;21.594;2023-07-28T00:16:06;93416.39;;;12.32;63.69
50696;BME280;36665;51.786;21.594;2023-07-28T00:24:30;93434.20;;;12.37;63.70
50696;BME280;36665;51.786;21.594;2023-07-28T00:32:53;93454.42;;;12.42;63.83
50696;BME280;36665;51.786;21.594;2023-07-28T00:41:16;93463.52;;;12.44;63.73
50696;BME280;36665;51.786;21.594;2023-07-28T00:49:40;93489.20;;;12.51;63.75
50696;BME280;36665;51.786;21.594;2023-07-28T00:58:03;93515.90;;;12.58;63.95
50696;BME280;36665;51.786;21.594;2023-07-28T01:14:59;93544.93;;;12.66;63.79
50696;BME280;36665;51.786;21.594;2023-07-28T01:23:41;93545.24;;;12.66;63.76
50696;BME280;36665;51.786;21.594;2023-07-28T01:32:07;93538.98;;;12.64;63.97
50696;BME280;36665;51.786;21.594;2023-07-28T01:40:30;93551.15;;;12.67;63.89
50696;BME280;36665;51.786;21.594;2023-07-28T01:48:53;93582.09;;;12.76;63.96
50696;BME280;36665;51.786;21.594;2023-07-28T01:57:17;93616.30;;;12.84;64.16
50696;BME280;36665;51.786;21.594;2023-07-28T02:05:40;93673.71;;;12.98;64.05
50696;BME280;36665;51.786;21.594;2023-07-28T02:14:03;93716.43;;;13.09;64.07
50696;BME280;36665;51.786;21.594;2023-07-28T02:22:26;93736.08;;;13.14;64.11
50696;BME280;36665;51.786;21.594;2023-07-28T02:30:50;93761.17;;;13.22;63.96
50696;BME280;36665;51.786;21.594;2023-07-28T02:39:16;93802.77;;;13.31;64.23
50696;BME280;36665;51.786;21.594;2023-07-28T02:47:38;93832.20;;;13.38;64.53
50696;BME280;36665;51.786;21.594;2023-07-28T02:56:02;93864.23;;;13.46;64.34
50696;BME280;36665;51.786;21.594;2023-07-28T03:04:25;93874.05;;;13.49;64.38
50696;BME280;36665;51.786;21.594;2023-07-28T03:13:18;93856.89;;;13.44;64.45
50696;BME280;36665;51.786;21.594;2023-07-28T03:21:42;93852.52;;;13.43;64.52
50696;BME280;36665;51.786;21.594;2023-07-28T03:30:05;93877.59;;;13.50;64.57
50696;BME280;36665;51.786;21.594;2023-07-28T03:38:32;93909.48;;;13.58;64.46
50696;BME280;36665;51.786;21.594;2023-07-28T03:46:55;93947.89;;;13.67;64.61
50696;BME280;36665;51.786;21.594;2023-07-28T03:55:18;93977.04;;;13.75;64.68
50696;BME280;36665;51.786;21.594;2023-07-28T04:03:41;93984.74;;;13.76;64.53
50696;BME280;36665;51.786;21.594;2023-07-28T04:12:04;93975.28;;;13.73;64.77
50696;BME280;36665;51.786;21.594;2023-07-28T04:20:27;94001.77;;;13.81;64.72
50696;BME280;36665;51.786;21.594;2023-07-28T04:28:50;94055.66;;;13.94;64.79
50696;BME280;36665;51.786;21.594;2023-07-28T04:37:13;94118.41;;;14.10;64.71
50696;BME280;36665;51.786;21.594;2023-07-28T04:45:54;94168.44;;;14.22;64.93
50696;BME280;36665;51.786;21.594;2023-07-28T04:54:19;94191.92;;;14.29;64.97
50696;BME280;36665;51.786;21.594;2023-07-28T05:02:42;94227.52;;;14.36;64.95
50696;BME280;36665;51.786;21.594;2023-07-28T05:11:05;94274.88;;;14.48;65.03
50696;BME280;36665;51.786;21.594;2023-07-28T05:19:28;94326.64;;;14.61;64.95
50696;BME280;36665;51.786;21.594;2023-07-28T05:27:58;94405.67;;;14.81;65.10
50696;BME280;36665;51.786;21.594;2023-07-28T05:36:23;94491.63;;;15.02;65.19
50696;BME280;36665;51.786;21.594;2023-07-28T05:44:48;94582.32;;;15.25;65.25
50696;BME280;36665;51.786;21.594;2023-07-28T05:53:11;94654.48;;;15.43;65.20
50696;BME280;36665;51.786;21.594;2023-07-28T06:01:35;94702.06;;;15.55;65.37
50696;BME280;36665;51.786;21.594;2023-07-28T06:10:06;94740.20;;;15.64;65.53
50696;BME280;36665;51.786;21.594;2023-07-28T06:18:29;94777.83;;;15.72;65.55
50696;BME280;36665;51.786;21.594;2023-07-28T06:27:07;94824.45;;;15.84;65.57
50696;BME280;36665;51.786;21.594;2023-07-28T06:35:35;94880.94;;;15.98;65.64
50696;BME280;36665;51.786;21.594;2023-07-28T06:43:59;94944.94;;;16.13;65.76
50696;BME280;36665;51.786;21.594;2023-07-28T06:52:23;94967.19;;;16.18;65.92
50696;BME280;36665;51.786;21.594;2023-07-28T07:00:48;94964.05;;;16.17;65.62
50696;BME280;36665;51.786;21.594;2023-07-28T07:09:12;94951.62;;;16.14;65.72
50696;BME280;36665;51.786;21.594;2023-07-28T07:17:38;94941.74;;;16.11;65.79
50696;BME280;36665;51.786;21.594;2023-07-28T07:26:03;94917.46;;;16.05;65.87
50696;BME280;36665;51.786;21.594;2023-07-28T07:34:26;94858.94;;;15.91;65.83
50696;BME280;36665;51.786;21.594;2023-07-28T07:42:49;94791.65;;;15.73;65.83
50696;BME280;36665;51.786;21.594;2023-07-28T07:51:12;94765.48;;;15.67;65.79
50696;BME280;36665;51.786;21.594;2023-07-28T07:59:35;94745.11;;;15.61;65.90
50696;BME280;36665;51.786;21.594;2023-07-28T08:07:58;94842.52;;;15.85;65.87
50696;BME280;36665;51.786;21.594;2023-07-28T08:16:21;95086.88;;;16.47;66.02
50696;BME280;36665;51.786;21.594;2023-07-28T08:24:44;95186.84;;;16.70;66.09
50696;BME280;36665;51.786;21.594;2023-07-28T08:33:07;95248.17;;;16.85;66.16
50696;BME280;36665;51.786;21.594;2023-07-28T08:41:30;95347.77;;;17.08;66.30
50696;BME280;36665;51.786;21.594;2023-07-28T08:49:54;95546.95;;;17.57;66.40
50696;BME280;36665;51.786;21.594;2023-07-28T08:58:18;95817.46;;;18.22;66.44
50696;BME280;36665;51.786;21.594;2023-07-28T09:06:46;95950.23;;;18.53;66.71
50696;BME280;36665;51.786;21.594;2023-07-28T09:15:09;95882.88;;;18.37;66.72
50696;BME280;36665;51.786;21.594;2023-07-28T09:23:32;95779.19;;;18.10;66.69
50696;BME280;36665;51.786;21.594;2023-07-28T09:32:04;95710.40;;;17.94;66.46
50696;BME280;36665;51.786;21.594;2023-07-28T09:40:27;95674.17;;;17.85;66.67
50696;BME280;36665;51.786;21.594;2023-07-28T09:48:56;95665.09;;;17.82;66.69
50696;BME280;36665;51.786;21.594;2023-07-28T09:57:21;95690.76;;;17.88;66.60
50696;BME280;36665;51.786;21.594;2023-07-28T10:05:46;95858.88;;;18.28;66.48
50696;BME280;36665;51.786;21.594;2023-07-28T10:14:09;96141.38;;;18.96;66.89
50696;BME280;36665;51.786;21.594;2023-07-28T10:22:44;96333.33;;;19.41;67.10
50696;BME280;36665;51.786;21.594;2023-07-28T10:31:10;96455.34;;;19.69;67.19
50696;BME280;36665;51.786;21.594;2023-07-28T10:39:34;96407.98;;;19.57;67.16
50696;BME280;36665;51.786;21.594;2023-07-28T10:48:00;96251.23;;;19.18;67.08
50696;BME280;36665;51.786;21.594;2023-07-28T10:56:24;96117.51;;;18.87;67.28
50696;BME280;36665;51.786;21.594;2023-07-28T11:04:48;96024.75;;;18.64;67.14
50696;BME280;36665;51.786;21.594;2023-07-28T11:13:11;95984.59;;;18.56;67.07
50696;BME280;36665;51.786;21.594;2023-07-28T11:21:55;95935.66;;;18.44;67.27
50696;BME280;36665;51.786;21.594;2023-07-28T11:30:22;95830.09;;;18.18;67.18
50696;BME280;36665;51.786;21.594;2023-07-28T11:38:45;95742.29;;;17.97;67.04
50696;BME280;36665;51.786;21.594;2023-07-28T11:47:08;95685.77;;;17.82;67.00
50696;BME280;36665;51.786;21.594;2023-07-28T11:55:39;95641.30;;;17.72;66.97
50696;BME280;36665;51.786;21.594;2023-07-28T12:04:22;95634.67;;;17.69;67.20
50696;BME280;36665;51.786;21.594;2023-07-28T12:12:48;95731.08;;;17.93;67.19
50696;BME280;36665;51.786;21.594;2023-07-28T12:21:14;95788.08;;;18.07;67.24
50696;BME280;36665;51.786;21.594;2023-07-28T12:29:37;95846.13;;;18.20;67.24
50696;BME280;36665;51.786;21.594;2023-07-28T12:38:12;95887.30;;;18.30;67.41
50696;BME280;36665;51.786;21.594;2023-07-28T12:46:39;95939.46;;;18.42;67.48
50696;BME280;36665;51.786;21.594;2023-07-28T12:55:02;96115.55;;;18.84;67.34
50696;BME280;36665;51.786;21.594;2023-07-28T13:03:28;96338.84;;;19.37;67.57
50696;BME280;36665;51.786;21.594;2023-07-28T13:11:51;96604.42;;;19.99;67.50
50696;BME280;36665;51.786;21.594;2023-07-28T13:20:17;96800.98;;;20.44;67.68
50696;BME280;36665;51.786;21.594;2023-07-28T13:28:40;96764.52;;;20.34;67.87
50696;BME280;36665;51.786;21.594;2023-07-28T13:37:09;96695.70;;;20.18;67.76
50696;BME280;36665;51.786;21.594;2023-07-28T13:45:32;96753.91;;;20.32;67.77
50696;BME280;36665;51.786;21.594;2023-07-28T13:53:55;96774.48;;;20.36;67.88
50696;BME280;36665;51.786;21.594;2023-07-28T14:02:21;96753.77;;;20.30;67.94
50696;BME280;36665;51.786;21.594;2023-07-28T14:10:45;96901.90;;;20.65;67.99
50696;BME280;36665;51.786;21.594;2023-07-28T14:19:08;96976.25;;;20.82;68.08
50696;BME280;36665;51.786;21.594;2023-07-28T14:27:31;96935.67;;;20.71;67.98
50696;BME280;36665;51.786;21.594;2023-07-28T14:35:54;96889.70;;;20.60;68.29
50696;BME280;36665;51.786;21.594;2023-07-28T14:44:17;96886.54;;;20.60;68.27
50696;BME280;36665;51.786;21.594;2023-07-28T14:52:40;96899.98;;;20.61;68.36
50696;BME280;36665;51.786;21.594;2023-07-28T15:01:04;97010.34;;;20.87;68.37
50696;BME280;36665;51.786;21.594;2023-07-28T15:09:30;97153.61;;;21.19;68.37
50696;BME280;36665;51.786;21.594;2023-07-28T15:17:53;97185.18;;;21.26;68.32
50696;BME280;36665;51.786;21.594;2023-07-28T15:26:16;97142.98;;;21.16;68.45
50696;BME280;36665;51.786;21.594;2023-07-28T15:34:39;97116.02;;;21.09;68.40
50696;BME280;36665;51.786;21.594;2023-07-28T15:43:02;97124.14;;;21.11;68.45
50696;BME280;36665;51.786;21.594;2023-07-28T15:51:25;97129.52;;;21.12;68.35
50696;BME280;36665;51.786;21.594;2023-07-28T15:59:48;97108.74;;;21.07;68.42
50696;BME280;36665;51.786;21.594;2023-07-28T16:08:11;97091.36;;;21.03;68.43
50696;BME280;36665;51.786;21.594;2023-07-28T16:16:35;97153.73;;;21.17;68.55
50696;BME280;36665;51.786;21.594;2023-07-28T16:24:58;97182.41;;;21.24;68.63
50696;BME280;36665;51.786;21.594;2023-07-28T16:33:21;97160.75;;;21.17;68.68
50696;BME280;36665;51.786;21.594;2023-07-28T16:41:44;97188.26;;;21.23;68.78
50696;BME280;36665;51.786;21.594;2023-07-28T16:50:09;97269.13;;;21.42;68.61
50696;BME280;36665;51.786;21.594;2023-07-28T16:58:32;97246.95;;;21.36;68.73
50696;BME280;36665;51.786;21.594;2023-07-28T17:06:55;97092.90;;;21.00;68.59
50696;BME280;36665;51.786;21.594;2023-07-28T17:15:18;96957.61;;;20.69;68.68
50696;BME280;36665;51.786;21.594;2023-07-28T17:23:56;96844.17;;;20.42;68.41
50696;BME280;36665;51.786;21.594;2023-07-28T17:32:19;96792.80;;;20.29;68.46
50696;BME280;36665;51.786;21.594;2023-07-28T17:40:43;96805.70;;;20.33;68.46
50696;BME280;36665;51.786;21.594;2023-07-28T17:49:06;96811.64;;;20.33;68.62
50696;BME280;36665;51.786;21.594;2023-07-28T17:57:29;96775.44;;;20.26;68.75
50696;BME280;36665;51.786;21.594;2023-07-28T18:05:52;96744.79;;;20.18;68.51
50696;BME280;36665;51.786;21.594;2023-07-28T18:14:16;96667.78;;;20.00;68.42
50696;BME280;36665;51.786;21.594;2023-07-28T18:22:38;96588.85;;;19.81;68.51
50696;BME280;36665;51.786;21.594;2023-07-28T18:31:01;96526.10;;;19.66;68.65
50696;BME280;36665;51.786;21.594;2023-07-28T18:39:25;96467.67;;;19.52;68.52
50696;BME280;36665;51.786;21.594;2023-07-28T18:47:47;96416.30;;;19.40;68.55
50696;BME280;36665;51.786;21.594;2023-07-28T18:56:11;96344.95;;;19.23;68.60
50696;BME280;36665;51.786;21.594;2023-07-28T19:04:33;96252.10;;;19.01;68.56
50696;BME280;36665;51.786;21.594;2023-07-28T19:12:56;96171.52;;;18.81;68.37
50696;BME280;36665;51.786;21.594;2023-07-28T19:21:19;96090.98;;;18.62;68.52
50696;BME280;36665;51.786;21.594;2023-07-28T19:29:43;96020.02;;;18.45;68.59
50696;BME280;36665;51.786;21.594;2023-07-28T19:38:06;95941.27;;;18.27;68.50
50696;BME280;36665;51.786;21.594;2023-07-28T19:46:28;95876.24;;;18.12;68.57
50696;BME280;36665;51.786;21.594;2023-07-28T19:54:52;95796.69;;;17.92;68.50
50696;BME280;36665;51.786;21.594;2023-07-28T20:03:14;95717.08;;;17.72;68.55
50696;BME280;36665;51.786;21.594;2023-07-28T20:11:38;95661.51;;;17.59;68.48
50696;BME280;36665;51.786;21.594;2023-07-28T20:20:01;95628.28;;;17.51;68.63
50696;BME280;36665;51.786;21.594;2023-07-28T20:28:24;95592.83;;;17.42;68.53
50696;BME280;36665;51.786;21.594;2023-07-28T20:36:47;95554.36;;;17.33;68.52
50696;BME280;36665;51.786;21.594;2023-07-28T20:45:10;95517.79;;;17.24;68.52
50696;BME280;36665;51.786;21.594;2023-07-28T20:53:34;95475.23;;;17.13;68.32
50696;BME280;36665;51.786;21.594;2023-07-28T21:01:56;95429.11;;;17.03;68.51
50696;BME280;36665;51.786;21.594;2023-07-28T21:10:19;95391.24;;;16.94;68.44
50696;BME280;36665;51.786;21.594;2023-07-28T21:18:42;95350.21;;;16.84;68.66
50696;BME280;36665;51.786;21.594;2023-07-28T21:27:06;95299.64;;;16.70;68.57
50696;BME280;36665;51.786;21.594;2023-07-28T21:35:30;95249.75;;;16.58;68.42
50696;BME280;36665;51.786;21.594;2023-07-28T21:43:53;95216.11;;;16.49;68.70
50696;BME280;36665;51.786;21.594;2023-07-28T21:52:16;95182.14;;;16.42;68.60
50696;BME280;36665;51.786;21.594;2023-07-28T22:00:42;95165.95;;;16.37;68.62
50696;BME280;36665;51.786;21.594;2023-07-28T22:09:05;95145.54;;;16.32;68.61
50696;BME280;36665;51.786;21.594;2023-07-28T22:17:28;95128.58;;;16.27;68.70
50696;BME280;36665;51.786;21.594;2023-07-28T22:25:51;95125.59;;;16.26;68.67
50696;BME280;36665;51.786;21.594;2023-07-28T22:34:14;95095.89;;;16.20;68.71
50696;BME280;36665;51.786;21.594;2023-07-28T22:42:37;95077.48;;;16.14;68.79
50696;BME280;36665;51.786;21.594;2023-07-28T22:51:01;95030.71;;;16.03;68.61
50696;BME280;36665;51.786;21.594;2023-07-28T22:59:24;95002.04;;;15.97;68.77
50696;BME280;36665;51.786;21.594;2023-07-28T23:07:48;95003.93;;;15.96;68.92
50696;BME280;36665;51.786;21.594;2023-07-28T23:16:11;94996.67;;;15.94;68.78
50696;BME280;36665;51.786;21.594;2023-07-28T23:24:34;95003.09;;;15.96;68.76
50696;BME280;36665;51.786;21.594;2023-07-28T23:32:57;95005.21;;;15.97;68.80
50696;BME280;36665;51.786;21.594;2023-07-28T23:41:20;94997.46;;;15.95;68.89
50696;BME280;36665;51.786;21.594;2023-07-28T23:49:43;95003.98;;;15.96;68.90
50696;BME280;36665;51.786;21.594;2023-07-28T23:58:06;94970.78;;;15.88;68.84
